Time;durP1;ratioP1;P1;durP2;ratioP2;P2;SDS_P1;SDS_P2;PMS_P1;PMS_P2;Temp;Humidity;BMP_temperature;BMP_pressure;BME280_temperature;BME280_humidity;BME280_pressure;Samples;Min_cycle;Max_cycle;Signal;HPM_P1;HPM_P2
2023/04/06 00:02:18;;;;;;;25.60;16.27;;;6.70;99.90;;;;;;4909095;28;38014;-78
2023/04/06 00:04:44;;;;;;;22.03;14.87;;;6.60;99.90;;;;;;4927961;29;37604;-78
2023/04/06 00:07:10;;;;;;;24.03;15.47;;;6.60;99.90;;;;;;4938253;28;38611;-77
2023/04/06 00:09:36;;;;;;;23.03;14.27;;;6.60;99.90;;;;;;4920056;29;37070;-77
2023/04/06 00:12:03;;;;;;;26.03;15.83;;;6.50;99.90;;;;;;4933913;28;38804;-78
2023/04/06 00:14:29;;;;;;;24.57;14.83;;;6.50;99.90;;;;;;4939444;28;39055;-77
2023/04/06 00:16:56;;;;;;;26.27;15.70;;;6.40;99.90;;;;;;4941240;28;39432;-78
2023/04/06 00:19:22;;;;;;;22.43;15.60;;;6.40;99.90;;;;;;4931323;28;36955;-78
2023/04/06 00:21:49;;;;;;;21.23;14.57;;;6.40;99.90;;;;;;4923226;29;40000;-78
2023/04/06 00:24:15;;;;;;;24.70;14.80;;;6.30;99.90;;;;;;4926124;28;37575;-76
2023/04/06 00:26:41;;;;;;;25.27;15.20;;;6.30;99.90;;;;;;4942973;28;38575;-77
2023/04/06 00:29:07;;;;;;;26.63;15.87;;;6.20;99.90;;;;;;4922706;28;36203;-78
2023/04/06 00:31:33;;;;;;;24.23;14.60;;;6.20;99.90;;;;;;4940593;28;39083;-77
2023/04/06 00:34:00;;;;;;;23.13;14.47;;;6.10;99.90;;;;;;4923570;28;37620;-78
2023/04/06 00:36:26;;;;;;;24.47;15.47;;;6.00;99.90;;;;;;4940272;28;39204;-78
2023/04/06 00:38:52;;;;;;;22.03;15.17;;;6.00;99.90;;;;;;4924708;28;36418;-78
2023/04/06 00:41:18;;;;;;;23.60;15.80;;;5.90;99.90;;;;;;4922322;28;37736;-77
2023/04/06 00:43:44;;;;;;;21.70;15.40;;;5.80;99.90;;;;;;4921751;29;37914;-77
2023/04/06 00:46:10;;;;;;;25.60;15.97;;;5.80;99.90;;;;;;4938914;28;38083;-78
2023/04/06 00:48:37;;;;;;;27.67;16.10;;;5.80;99.90;;;;;;4946147;28;38785;-78
2023/04/06 00:51:03;;;;;;;26.70;17.13;;;5.70;99.90;;;;;;4940017;28;38952;-78
2023/04/06 00:53:29;;;;;;;24.03;15.87;;;5.70;99.90;;;;;;4922937;28;37727;-78
2023/04/06 00:55:55;;;;;;;25.93;16.57;;;5.70;99.90;;;;;;4936788;28;39576;-77
2023/04/06 00:58:21;;;;;;;24.70;16.27;;;5.60;99.90;;;;;;4925963;28;36293;-78
2023/04/06 01:03:24;;;;;;;28.73;16.53;;;5.60;99.90;;;;;;5080162;23;20200;-82
2023/04/06 01:05:55;;;;;;;25.77;16.43;;;5.60;99.90;;;;;;4930174;29;37079;-83
2023/04/06 01:08:25;;;;;;;25.20;17.27;;;5.60;99.90;;;;;;4909127;29;36862;-83
2023/04/06 01:10:54;;;;;;;25.63;16.47;;;5.50;99.90;;;;;;4920837;29;39701;-82
2023/04/06 01:13:20;;;;;;;27.23;16.77;;;5.60;99.90;;;;;;4943559;29;38645;-83
2023/04/06 01:15:47;;;;;;;25.53;15.83;;;5.60;99.90;;;;;;4930145;29;39109;-83
2023/04/06 01:18:13;;;;;;;26.50;17.20;;;5.60;99.90;;;;;;4899022;29;36352;-82
2023/04/06 01:20:40;;;;;;;24.87;15.80;;;5.60;99.90;;;;;;4939265;29;38841;-82
2023/04/06 01:23:06;;;;;;;26.03;17.93;;;5.60;99.90;;;;;;4920693;29;38185;-82
2023/04/06 01:25:32;;;;;;;26.13;15.97;;;5.60;99.90;;;;;;4913990;29;38099;-82
2023/04/06 01:27:58;;;;;;;28.80;16.37;;;5.50;99.90;;;;;;4917617;29;37439;-82
2023/04/06 01:30:30;;;;;;;24.13;16.13;;;5.50;99.90;;;;;;4932333;29;39274;-83
2023/04/06 01:32:56;;;;;;;24.52;16.58;;;5.50;99.90;;;;;;4927834;29;39190;-83
2023/04/06 01:35:22;;;;;;;25.33;16.77;;;5.50;99.90;;;;;;4911558;29;38397;-83
2023/04/06 01:37:48;;;;;;;25.13;16.00;;;5.50;99.90;;;;;;4911965;29;36194;-82
2023/04/06 01:40:15;;;;;;;26.80;16.17;;;5.50;99.90;;;;;;4915247;29;37745;-83
2023/04/06 01:42:42;;;;;;;22.93;16.37;;;5.60;99.90;;;;;;4928548;29;39374;-83
2023/04/06 01:45:08;;;;;;;26.93;16.50;;;5.70;99.90;;;;;;4923369;29;38496;-82
2023/04/06 01:47:34;;;;;;;22.53;15.70;;;5.70;99.90;;;;;;4926481;29;36341;-82
2023/04/06 01:50:00;;;;;;;23.83;16.00;;;5.70;99.90;;;;;;4930275;29;39146;-83
2023/04/06 01:52:26;;;;;;;28.57;16.83;;;5.60;99.90;;;;;;4910599;29;38970;-83
2023/04/06 01:54:53;;;;;;;22.57;16.57;;;5.70;99.90;;;;;;4910148;29;38010;-83
2023/04/06 01:57:19;;;;;;;29.67;17.17;;;5.70;99.90;;;;;;4933332;29;36165;-83
2023/04/06 01:59:45;;;;;;;27.60;16.50;;;5.70;99.90;;;;;;4915724;29;38151;-83
2023/04/06 02:02:12;;;;;;;23.50;16.60;;;5.70;99.90;;;;;;4929485;29;38670;-82
2023/04/06 02:04:38;;;;;;;24.73;17.23;;;5.80;99.90;;;;;;4893340;29;38548;-84
2023/04/06 02:07:04;;;;;;;25.70;16.37;;;5.80;99.90;;;;;;4891151;29;36417;-82
2023/04/06 02:09:31;;;;;;;28.17;18.07;;;5.80;99.90;;;;;;4911982;29;38359;-83
2023/04/06 02:11:57;;;;;;;27.47;16.70;;;5.90;99.90;;;;;;4901880;29;37757;-83
2023/04/06 02:14:25;;;;;;;23.93;16.13;;;5.90;99.90;;;;;;4895755;29;37169;-82
2023/04/06 02:16:51;;;;;;;29.43;17.93;;;6.00;99.90;;;;;;4894129;29;36116;-83
2023/04/06 02:19:19;;;;;;;27.33;17.67;;;6.00;99.90;;;;;;4910684;29;39040;-83
2023/04/06 02:21:45;;;;;;;27.03;17.43;;;6.00;99.90;;;;;;4910703;29;39177;-83
2023/04/06 02:24:11;;;;;;;25.03;16.20;;;6.00;99.90;;;;;;4889914;29;38645;-82
2023/04/06 02:26:37;;;;;;;25.20;17.50;;;6.10;99.90;;;;;;4891983;29;37324;-82
2023/04/06 02:29:03;;;;;;;23.83;16.47;;;6.10;99.90;;;;;;4908698;29;38487;-80
2023/04/06 02:31:35;;;;;;;27.50;18.17;;;6.10;99.90;;;;;;4912627;29;38750;-83
2023/04/06 02:34:01;;;;;;;24.63;17.55;;;6.10;99.90;;;;;;4902359;29;37357;-83
2023/04/06 02:36:27;;;;;;;26.07;17.90;;;6.10;99.90;;;;;;4912150;29;47537;-83
2023/04/06 02:38:53;;;;;;;25.33;17.00;;;6.10;99.90;;;;;;4919336;29;39869;-83
2023/04/06 02:41:19;;;;;;;30.00;17.50;;;6.10;99.90;;;;;;4897585;29;37580;-82
2023/04/06 02:43:45;;;;;;;29.47;16.90;;;6.10;99.90;;;;;;4898245;29;38641;-82
2023/04/06 02:46:11;;;;;;;28.27;18.37;;;6.10;99.90;;;;;;4910122;29;35792;-82
2023/04/06 02:48:37;;;;;;;28.33;18.03;;;6.10;99.90;;;;;;4897851;29;37483;-83
2023/04/06 02:51:05;;;;;;;28.00;18.07;;;6.10;99.90;;;;;;4899265;29;37534;-83
2023/04/06 02:53:31;;;;;;;31.10;18.13;;;6.10;99.90;;;;;;4921692;29;49730;-82
2023/04/06 02:55:57;;;;;;;29.23;17.77;;;6.10;99.90;;;;;;4898279;29;36641;-82
2023/04/06 02:58:23;;;;;;;28.43;17.90;;;6.10;99.90;;;;;;4915474;29;38470;-82
2023/04/06 03:00:49;;;;;;;27.70;17.63;;;6.10;99.90;;;;;;4906137;29;37996;-81
2023/04/06 03:03:15;;;;;;;29.97;17.93;;;6.10;99.90;;;;;;4908100;29;38230;-83
2023/04/06 03:05:41;;;;;;;29.53;19.07;;;6.20;99.90;;;;;;4915203;29;37892;-82
2023/04/06 03:08:07;;;;;;;28.43;18.47;;;6.20;99.90;;;;;;4904662;29;37429;-82
2023/04/06 03:10:34;;;;;;;27.43;17.83;;;6.20;99.90;;;;;;4917784;29;40110;-83
2023/04/06 03:13:00;;;;;;;29.27;19.57;;;6.20;99.90;;;;;;4915828;29;38984;-82
2023/04/06 03:15:26;;;;;;;31.60;17.90;;;6.20;99.90;;;;;;4921083;29;36424;-82
2023/04/06 03:17:52;;;;;;;27.73;17.77;;;6.30;99.90;;;;;;4916075;29;39323;-82
2023/04/06 03:20:18;;;;;;;28.70;18.03;;;6.30;99.90;;;;;;4913684;29;38687;-82
2023/04/06 03:22:44;;;;;;;29.23;17.67;;;6.30;99.90;;;;;;4911815;29;37004;-83
2023/04/06 03:25:10;;;;;;;30.63;18.13;;;6.30;99.90;;;;;;4911091;29;37638;-83
2023/04/06 03:27:36;;;;;;;29.57;17.83;;;6.30;99.90;;;;;;4912227;29;37743;-82
2023/04/06 03:30:03;;;;;;;31.43;20.17;;;6.30;99.90;;;;;;4914502;29;37857;-83
2023/04/06 03:32:29;;;;;;;27.83;18.47;;;6.30;99.90;;;;;;4911595;29;36811;-83
2023/04/06 03:34:55;;;;;;;27.93;17.93;;;6.30;99.90;;;;;;4899829;29;36234;-83
2023/04/06 03:37:21;;;;;;;27.67;17.00;;;6.30;99.90;;;;;;4913443;29;37765;-82
2023/04/06 03:39:47;;;;;;;26.93;17.10;;;6.40;99.90;;;;;;4902270;29;39283;-82
2023/04/06 03:42:13;;;;;;;33.00;18.20;;;6.40;99.90;;;;;;4904745;29;39119;-82
2023/04/06 03:44:40;;;;;;;27.83;17.70;;;6.40;99.90;;;;;;4908939;29;37516;-83
2023/04/06 03:47:06;;;;;;;28.73;18.37;;;6.40;99.90;;;;;;4908814;29;39207;-82
2023/04/06 03:49:40;;;;;;;30.07;19.37;;;6.40;99.90;;;;;;4907579;29;37703;-82
2023/04/06 03:52:06;;;;;;;30.60;18.83;;;6.40;99.90;;;;;;4914279;29;40445;-82
2023/04/06 03:54:33;;;;;;;30.47;18.50;;;6.40;99.90;;;;;;4909959;29;37392;-83
2023/04/06 03:57:04;;;;;;;29.00;17.87;;;6.40;99.90;;;;;;4907235;29;39615;-82
2023/04/06 03:59:31;;;;;;;35.60;19.55;;;6.40;99.90;;;;;;4908886;29;49489;-82
2023/04/06 04:02:00;;;;;;;33.17;20.40;;;6.40;99.90;;;;;;4913798;29;38287;-82
2023/04/06 04:04:26;;;;;;;30.60;20.50;;;6.50;99.90;;;;;;4920387;29;39636;-82
2023/04/06 04:06:52;;;;;;;31.13;18.90;;;6.50;99.90;;;;;;4931384;29;40233;-82
2023/04/06 04:09:18;;;;;;;28.07;19.00;;;6.40;99.90;;;;;;4924456;29;38941;-81
2023/04/06 04:11:44;;;;;;;29.73;18.57;;;6.40;99.90;;;;;;4902173;29;37473;-82
2023/04/06 04:14:10;;;;;;;29.70;18.77;;;6.50;99.90;;;;;;4917289;29;38873;-83
2023/04/06 04:16:36;;;;;;;31.90;19.80;;;6.50;99.90;;;;;;4912900;29;38700;-82
2023/04/06 04:19:02;;;;;;;28.13;18.37;;;6.40;99.90;;;;;;4905154;29;38915;-81
2023/04/06 04:21:30;;;;;;;30.17;18.13;;;6.50;99.90;;;;;;4908648;29;39452;-82
2023/04/06 04:23:56;;;;;;;35.17;19.67;;;6.50;99.90;;;;;;4901253;29;37365;-81
2023/04/06 04:26:24;;;;;;;32.93;19.50;;;6.50;99.90;;;;;;4913009;29;39429;-82
2023/04/06 04:28:50;;;;;;;33.23;19.90;;;6.50;99.90;;;;;;4907858;29;38849;-82
2023/04/06 04:31:22;;;;;;;29.60;18.93;;;6.50;99.90;;;;;;4913588;29;38840;-82
2023/04/06 04:33:48;;;;;;;30.43;19.47;;;6.50;99.90;;;;;;4912596;29;37071;-83
2023/04/06 04:36:14;;;;;;;34.00;20.33;;;6.50;99.90;;;;;;4917161;29;40317;-82
2023/04/06 04:38:41;;;;;;;31.77;19.30;;;6.50;99.90;;;;;;4914461;29;38745;-82
2023/04/06 04:41:16;;;;;;;29.87;19.73;;;6.60;99.90;;;;;;4892537;29;37458;-82
2023/04/06 04:43:42;;;;;;;31.43;19.80;;;6.50;99.90;;;;;;4890286;29;37062;-82
2023/04/06 04:46:08;;;;;;;33.90;20.67;;;6.60;99.90;;;;;;4891933;29;38560;-81
2023/04/06 04:48:35;;;;;;;32.10;20.03;;;6.60;99.90;;;;;;4912495;29;38949;-82
2023/04/06 04:51:01;;;;;;;31.93;19.70;;;6.60;99.90;;;;;;4907256;29;38554;-82
2023/04/06 04:53:27;;;;;;;32.27;19.33;;;6.60;99.90;;;;;;4888787;29;47360;-82
2023/04/06 04:55:53;;;;;;;29.40;19.67;;;6.70;99.90;;;;;;4907636;29;39692;-81
2023/04/06 04:58:20;;;;;;;34.67;20.63;;;6.70;99.90;;;;;;4902798;29;39509;-82
2023/04/06 05:00:46;;;;;;;34.23;21.90;;;6.70;99.90;;;;;;4891479;29;37719;-82
2023/04/06 05:03:53;;;;;;;33.13;19.70;;;6.70;99.90;;;;;;4894395;29;37368;-82
2023/04/06 05:06:19;;;;;;;33.73;20.23;;;6.70;99.90;;;;;;4893755;29;37728;-83
2023/04/06 05:08:45;;;;;;;33.83;21.37;;;6.80;99.90;;;;;;4900955;29;36065;-83
2023/04/06 05:11:11;;;;;;;35.83;21.63;;;6.70;99.90;;;;;;4918567;29;38450;-83
2023/04/06 05:13:37;;;;;;;34.83;21.63;;;6.70;99.90;;;;;;4899356;29;36136;-84
2023/04/06 05:16:04;;;;;;;33.67;22.47;;;6.70;99.90;;;;;;4897907;29;38519;-83
2023/04/06 05:18:30;;;;;;;34.57;22.13;;;6.80;99.90;;;;;;4902970;29;38742;-83
2023/04/06 05:20:56;;;;;;;33.93;22.63;;;6.80;99.90;;;;;;4912027;29;38634;-83
2023/04/06 05:23:22;;;;;;;36.00;21.87;;;6.80;99.90;;;;;;4889299;29;36457;-82
2023/04/06 05:25:49;;;;;;;32.33;21.07;;;6.80;99.90;;;;;;4905255;29;39012;-83
2023/04/06 05:28:15;;;;;;;36.40;22.30;;;6.90;99.90;;;;;;4911530;29;40270;-83
2023/04/06 05:30:42;;;;;;;34.93;22.37;;;6.90;99.90;;;;;;4899738;29;37365;-83
2023/04/06 05:33:10;;;;;;;39.87;22.43;;;6.90;99.90;;;;;;4895593;29;36107;-82
2023/04/06 05:35:36;;;;;;;36.57;22.57;;;7.00;99.90;;;;;;4896956;29;38035;-81
2023/04/06 05:38:02;;;;;;;37.00;24.50;;;7.00;99.90;;;;;;4878433;29;37535;-82
2023/04/06 05:40:28;;;;;;;36.40;22.53;;;7.00;99.90;;;;;;4912959;29;38752;-83
2023/04/06 05:42:55;;;;;;;37.87;23.03;;;7.10;99.90;;;;;;4906040;29;39036;-82
2023/04/06 05:45:21;;;;;;;36.93;24.03;;;7.20;99.90;;;;;;4906834;29;38985;-82
2023/04/06 05:47:47;;;;;;;36.23;23.70;;;7.20;99.90;;;;;;4896521;29;40011;-81
2023/04/06 05:50:14;;;;;;;41.93;23.73;;;7.20;99.90;;;;;;4886155;29;37673;-81
2023/04/06 05:52:42;;;;;;;38.93;23.67;;;7.20;99.90;;;;;;4895009;29;37479;-81
2023/04/06 05:55:10;;;;;;;35.43;23.07;;;7.20;99.90;;;;;;4891132;29;37886;-81
2023/04/06 05:57:36;;;;;;;36.20;24.67;;;7.30;99.90;;;;;;4903325;29;38611;-80
2023/04/06 06:00:03;;;;;;;38.37;24.43;;;7.30;99.90;;;;;;4875787;29;39236;-81
2023/04/06 06:02:32;;;;;;;35.00;21.97;;;7.30;99.90;;;;;;4891677;29;36299;-81
2023/04/06 06:04:58;;;;;;;38.37;23.07;;;7.30;99.90;;;;;;4905174;29;38480;-80
2023/04/06 06:07:24;;;;;;;38.13;23.13;;;7.30;99.90;;;;;;4899219;29;38857;-81
2023/04/06 06:09:50;;;;;;;36.13;21.63;;;7.30;99.90;;;;;;4898201;29;38877;-80
2023/04/06 06:12:16;;;;;;;37.57;22.97;;;7.30;99.90;;;;;;4899012;29;37230;-81
2023/04/06 06:14:42;;;;;;;32.57;21.80;;;7.40;99.90;;;;;;4885230;29;38381;-81
2023/04/06 06:17:09;;;;;;;36.00;22.90;;;7.40;99.90;;;;;;4897921;29;37104;-82
2023/04/06 06:19:36;;;;;;;40.10;23.43;;;7.40;99.90;;;;;;4879667;29;37337;-82
2023/04/06 06:22:02;;;;;;;36.50;23.20;;;7.40;99.90;;;;;;4884056;29;37388;-81
2023/04/06 06:24:31;;;;;;;38.60;22.63;;;7.50;99.90;;;;;;4886650;29;38909;-81
2023/04/06 06:26:58;;;;;;;34.50;22.53;;;7.50;99.90;;;;;;4889522;29;37946;-81
2023/04/06 06:29:24;;;;;;;37.57;21.53;;;7.50;99.90;;;;;;4890612;29;37442;-82
2023/04/06 06:31:50;;;;;;;35.57;22.70;;;7.60;99.90;;;;;;4889861;29;36301;-81
2023/04/06 06:34:17;;;;;;;34.00;21.73;;;7.50;99.90;;;;;;4901306;29;37235;-83
2023/04/06 06:36:44;;;;;;;36.47;23.03;;;7.60;99.90;;;;;;4932917;23;39012;-83
2023/04/06 06:39:21;;;;;;;35.27;22.87;;;7.70;99.90;;;;;;4949538;28;38409;-83
2023/04/06 06:41:48;;;;;;;37.27;23.37;;;7.70;99.90;;;;;;4949582;28;36554;-81
2023/04/06 06:47:41;;;;;;;37.40;24.53;;;7.70;99.90;;;;;;4946270;28;20052;-81
2023/04/06 06:50:07;;;;;;;34.40;24.47;;;7.70;99.90;;;;;;4950404;28;38406;-80
2023/04/06 06:52:33;;;;;;;38.67;25.20;;;7.80;99.90;;;;;;4941681;28;36308;-81
2023/04/06 06:57:35;;;;;;;37.07;25.33;;;7.80;99.90;;;;;;5037496;23;20052;-82
2023/04/06 07:00:02;;;;;;;37.67;25.03;;;7.90;99.90;;;;;;4921049;29;38845;-82
2023/04/06 07:02:28;;;;;;;42.20;25.33;;;7.90;99.90;;;;;;4931702;28;36751;-81
2023/04/06 07:04:54;;;;;;;41.67;26.83;;;7.90;99.90;;;;;;4932196;28;37525;-81
2023/04/06 07:07:20;;;;;;;38.83;26.33;;;7.80;99.90;;;;;;4936640;28;38924;-81
2023/04/06 07:09:46;;;;;;;42.00;27.73;;;7.90;99.90;;;;;;4937922;28;37380;-82
2023/04/06 07:12:12;;;;;;;44.87;29.43;;;7.90;99.90;;;;;;4917254;29;35806;-81
2023/04/06 07:14:38;;;;;;;45.30;28.90;;;7.90;99.90;;;;;;4939259;28;39583;-80
2023/04/06 07:17:04;;;;;;;45.40;29.63;;;7.80;99.90;;;;;;4936013;28;37224;-81
2023/04/06 07:19:30;;;;;;;43.67;30.00;;;7.90;99.90;;;;;;4939427;28;38079;-81
2023/04/06 07:21:57;;;;;;;44.47;30.60;;;7.90;99.90;;;;;;4934503;28;36761;-81
2023/04/06 07:24:26;;;;;;;43.57;29.07;;;7.90;99.90;;;;;;4934894;28;38939;-80
2023/04/06 07:26:52;;;;;;;48.30;31.60;;;8.00;99.90;;;;;;4952295;28;39156;-81
2023/04/06 07:29:18;;;;;;;52.80;33.13;;;8.10;99.90;;;;;;4960184;28;37645;-82
2023/04/06 07:31:44;;;;;;;51.10;33.87;;;8.10;99.90;;;;;;4951411;28;37589;-81
2023/04/06 07:34:10;;;;;;;49.03;33.83;;;8.20;99.90;;;;;;4951369;28;40179;-81
2023/04/06 07:36:36;;;;;;;48.60;32.73;;;8.20;99.90;;;;;;4927855;28;35649;-81
2023/04/06 07:39:03;;;;;;;48.63;33.47;;;8.20;99.90;;;;;;4947730;28;38374;-80
2023/04/06 07:41:29;;;;;;;50.30;34.63;;;8.20;99.90;;;;;;4948668;28;37086;-80
2023/04/06 07:43:57;;;;;;;53.07;34.70;;;8.20;99.90;;;;;;4955615;28;39422;-81
2023/04/06 07:46:24;;;;;;;50.40;34.70;;;8.20;99.90;;;;;;4943893;28;39534;-82
2023/04/06 07:48:51;;;;;;;51.37;34.27;;;8.20;99.90;;;;;;4925793;28;38283;-81
2023/04/06 07:51:17;;;;;;;51.17;33.77;;;8.20;99.90;;;;;;4948448;28;37878;-82
2023/04/06 07:53:46;;;;;;;52.20;32.70;;;8.30;99.90;;;;;;4938438;28;38032;-80
2023/04/06 07:56:12;;;;;;;46.00;30.87;;;8.20;99.90;;;;;;4969032;28;39041;-83
2023/04/06 08:01:28;;;;;;;46.13;28.80;;;8.20;99.90;;;;;;5051607;23;20088;-82
2023/04/06 08:03:57;;;;;;;45.60;29.60;;;8.10;99.90;;;;;;4913903;29;38995;-83
2023/04/06 08:06:23;;;;;;;50.63;29.57;;;8.10;99.90;;;;;;4909313;29;37874;-84
2023/04/06 08:08:50;;;;;;;47.70;29.30;;;8.10;99.90;;;;;;4939519;29;39918;-82
2023/04/06 08:11:16;;;;;;;52.40;29.13;;;8.10;99.90;;;;;;4912601;29;36618;-83
2023/04/06 08:13:42;;;;;;;46.93;28.00;;;8.10;99.90;;;;;;4926913;29;38923;-82
2023/04/06 08:16:08;;;;;;;42.83;25.93;;;8.10;99.90;;;;;;4913027;29;38965;-82
2023/04/06 08:18:34;;;;;;;37.37;23.07;;;8.00;99.90;;;;;;4939655;29;38460;-83
2023/04/06 08:21:00;;;;;;;44.60;23.73;;;8.00;99.90;;;;;;4931542;29;38045;-82
2023/04/06 08:23:26;;;;;;;39.63;23.83;;;7.90;99.90;;;;;;4932776;29;47260;-81
2023/04/06 08:25:54;;;;;;;38.23;22.50;;;8.00;99.90;;;;;;4934681;29;40365;-84
2023/04/06 08:28:21;;;;;;;35.47;22.47;;;7.90;99.90;;;;;;4913957;29;38408;-84
2023/04/06 08:30:47;;;;;;;39.10;21.97;;;8.00;99.90;;;;;;4930667;29;40095;-82
2023/04/06 08:33:13;;;;;;;35.17;20.03;;;8.00;99.90;;;;;;4913622;29;37666;-81
2023/04/06 08:35:39;;;;;;;31.60;18.80;;;7.90;99.90;;;;;;4909115;29;35010;-81
2023/04/06 08:38:06;;;;;;;27.27;18.27;;;7.90;99.90;;;;;;4909410;29;37562;-82
2023/04/06 08:40:39;;;;;;;34.87;18.60;;;7.90;99.90;;;;;;4908793;29;36463;-82
2023/04/06 08:43:09;;;;;;;30.37;16.73;;;7.90;99.90;;;;;;4907973;29;37777;-81
2023/04/06 08:45:35;;;;;;;27.40;16.70;;;7.90;99.90;;;;;;4911355;29;37604;-80
2023/04/06 08:48:03;;;;;;;31.53;17.63;;;7.90;99.90;;;;;;4892737;29;37581;-83
2023/04/06 08:50:36;;;;;;;29.67;16.20;;;8.00;99.90;;;;;;4924264;29;37501;-80
2023/04/06 08:53:06;;;;;;;24.53;14.23;;;8.00;99.90;;;;;;4911031;29;38855;-83
2023/04/06 08:55:35;;;;;;;20.90;12.60;;;8.00;99.90;;;;;;4928353;29;38761;-82
2023/04/06 08:58:14;;;;;;;17.00;10.67;;;8.00;99.90;;;;;;4944672;29;40028;-84
2023/04/06 09:00:58;;;;;;;17.50;10.30;;;8.00;99.90;;;;;;4953271;28;39021;-82
2023/04/06 09:03:29;;;;;;;18.80;10.53;;;7.90;99.90;;;;;;4940408;29;39014;-83
2023/04/06 09:06:02;;;;;;;15.93;10.20;;;8.00;99.90;;;;;;4921073;29;38046;-83
2023/04/06 09:08:33;;;;;;;16.03;10.00;;;8.00;99.90;;;;;;4915721;29;48131;-82
2023/04/06 09:11:01;;;;;;;14.40;9.90;;;8.00;99.90;;;;;;4924575;29;37348;-83
2023/04/06 09:14:02;;;;;;;18.13;10.17;;;8.00;99.90;;;;;;4940550;28;48012;-83
2023/04/06 09:17:09;;;;;;;15.33;9.90;;;8.10;99.90;;;;;;5027737;23;49247;-81
2023/04/06 09:19:50;;;;;;;14.90;11.07;;;8.10;99.90;;;;;;4902062;28;48936;-82
2023/04/06 09:22:58;;;;;;;17.90;11.17;;;8.10;99.90;;;;;;4925450;28;37688;-82
2023/04/06 09:25:26;;;;;;;17.40;12.27;;;8.10;99.90;;;;;;4950826;28;39301;-81
2023/04/06 09:28:06;;;;;;;19.07;13.00;;;8.00;99.90;;;;;;4921178;29;38281;-82
2023/04/06 09:30:35;;;;;;;19.13;12.97;;;7.90;99.90;;;;;;4921739;29;47783;-81
2023/04/06 09:33:03;;;;;;;21.37;13.87;;;7.90;99.90;;;;;;4952485;29;38146;-81
2023/04/06 09:35:31;;;;;;;22.13;14.23;;;7.90;99.90;;;;;;4953326;28;39245;-82
2023/04/06 09:37:57;;;;;;;23.57;14.77;;;7.90;99.90;;;;;;4943474;28;39583;-81
2023/04/06 09:40:24;;;;;;;23.47;14.80;;;8.00;99.90;;;;;;4946379;28;37364;-82
2023/04/06 09:42:52;;;;;;;21.77;14.97;;;8.00;99.90;;;;;;4933706;28;37002;-82
2023/04/06 09:45:20;;;;;;;21.33;15.07;;;8.00;99.90;;;;;;4949137;29;38921;-81
2023/04/06 09:47:46;;;;;;;19.67;13.80;;;7.90;99.90;;;;;;4941751;28;39065;-81
2023/04/06 09:50:14;;;;;;;23.10;14.07;;;7.90;99.90;;;;;;4930871;28;37533;-80
2023/04/06 09:52:54;;;;;;;22.33;14.77;;;8.00;99.90;;;;;;4948540;28;37686;-80
2023/04/06 09:55:30;;;;;;;22.63;14.60;;;7.90;99.90;;;;;;4919591;29;36336;-81
2023/04/06 09:58:09;;;;;;;21.23;13.83;;;8.00;99.90;;;;;;4945204;28;38788;-80
2023/04/06 10:00:47;;;;;;;22.07;13.93;;;8.00;99.90;;;;;;4934176;28;46981;-80
2023/04/06 10:03:49;;;;;;;18.03;13.30;;;7.90;99.90;;;;;;4930014;28;37721;-80
2023/04/06 10:06:21;;;;;;;17.87;13.70;;;7.90;99.90;;;;;;4928444;28;39861;-80
2023/04/06 10:08:49;;;;;;;23.02;14.68;;;7.90;99.90;;;;;;4917990;29;37794;-81
2023/04/06 10:11:16;;;;;;;20.10;13.23;;;8.00;99.90;;;;;;4923474;29;37720;-80
2023/04/06 10:13:44;;;;;;;21.27;14.77;;;8.00;99.90;;;;;;4936798;28;38334;-81
2023/04/06 10:16:12;;;;;;;23.47;14.80;;;8.00;99.90;;;;;;4922777;28;39239;-81
2023/04/06 10:18:42;;;;;;;17.27;12.87;;;8.00;99.90;;;;;;4903101;29;38327;-80
2023/04/06 10:21:12;;;;;;;20.00;13.03;;;8.00;99.90;;;;;;4919144;29;38271;-81
2023/04/06 10:24:01;;;;;;;17.27;12.03;;;8.10;99.90;;;;;;4915078;29;37771;-81
2023/04/06 10:26:27;;;;;;;22.47;11.97;;;8.00;99.90;;;;;;4930362;29;39380;-81
2023/04/06 10:28:55;;;;;;;19.90;11.73;;;8.10;99.90;;;;;;4907044;29;37885;-81
2023/04/06 10:31:28;;;;;;;15.90;11.47;;;8.20;99.90;;;;;;4921876;29;38640;-81
2023/04/06 10:34:02;;;;;;;14.07;11.10;;;8.20;99.90;;;;;;4904553;29;36353;-80
2023/04/06 10:36:33;;;;;;;16.60;11.43;;;8.10;99.90;;;;;;4922398;29;47158;-80
2023/04/06 10:39:07;;;;;;;14.33;10.23;;;8.20;99.90;;;;;;4923691;29;39017;-81
2023/04/06 10:41:35;;;;;;;14.67;10.97;;;8.10;99.90;;;;;;4919923;29;48394;-81
2023/04/06 10:44:02;;;;;;;13.63;10.63;;;8.10;99.90;;;;;;4907839;29;36719;-81
2023/04/06 10:46:30;;;;;;;14.77;11.00;;;8.10;99.90;;;;;;4911351;29;38052;-81
2023/04/06 10:48:57;;;;;;;17.07;11.23;;;8.20;99.90;;;;;;4900549;29;37976;-80
2023/04/06 10:51:28;;;;;;;15.23;11.63;;;8.30;99.90;;;;;;4921646;29;38476;-81
2023/04/06 10:53:59;;;;;;;15.27;11.90;;;8.30;99.90;;;;;;4924221;29;36737;-81
2023/04/06 10:56:27;;;;;;;17.13;12.23;;;8.30;99.90;;;;;;4911794;29;40689;-81
2023/04/06 10:58:57;;;;;;;18.07;12.60;;;8.40;99.90;;;;;;4925210;29;38669;-80
2023/04/06 11:01:27;;;;;;;17.10;13.77;;;8.40;99.90;;;;;;4905253;29;39150;-80
2023/04/06 11:04:00;;;;;;;20.20;14.37;;;8.40;99.90;;;;;;4928138;29;37694;-81
2023/04/06 11:06:30;;;;;;;17.63;13.20;;;8.30;99.90;;;;;;4918372;23;49368;-80
2023/04/06 11:08:57;;;;;;;17.43;13.93;;;8.30;99.90;;;;;;4919052;29;39068;-82
2023/04/06 11:14:00;;;;;;;19.53;14.77;;;8.30;99.90;;;;;;5833098;23;20037;-82
2023/04/06 11:16:33;;;;;;;18.33;14.67;;;8.30;99.90;;;;;;5518672;23;38677;31
2023/04/06 11:55:50;;;;;;;18.85;14.38;;;8.30;99.90;;;;;;5226246;23;20043;-83
2023/04/06 12:04:17;;;;;;;18.73;15.33;;;8.30;99.90;;;;;;5112917;23;20029;-84
2023/04/06 12:06:58;;;;;;;18.07;14.53;;;8.30;99.90;;;;;;4945097;23;39170;-82
2023/04/06 12:10:09;;;;;;;18.50;14.73;;;8.40;99.90;;;;;;4889927;28;36880;-82
2023/04/06 12:12:50;;;;;;;17.63;14.83;;;8.40;99.90;;;;;;4875669;28;38756;-83
2023/04/06 12:15:27;;;;;;;21.60;15.70;;;8.40;99.90;;;;;;4950373;28;40112;-82
2023/04/06 12:18:28;;;;;;;18.37;14.17;;;8.40;99.90;;;;;;4964954;28;40324;-83
2023/04/06 12:21:30;;;;;;;16.07;13.10;;;8.30;99.90;;;;;;4946354;28;50317;-82
2023/04/06 12:24:10;;;;;;;18.77;14.27;;;8.20;99.90;;;;;;4931511;28;37316;-83
2023/04/06 12:26:48;;;;;;;19.60;14.63;;;8.20;99.90;;;;;;4926964;28;50233;-81
2023/04/06 12:31:52;;;;;;;18.93;15.77;;;8.20;99.90;;;;;;4983799;23;20345;-83
2023/04/06 12:34:21;;;;;;;19.33;16.07;;;8.20;99.90;;;;;;4926235;28;39011;-83
2023/04/06 12:36:59;;;;;;;19.77;15.73;;;8.20;99.90;;;;;;4924017;28;38010;-83
2023/04/06 12:42:09;;;;;;;19.87;15.40;;;8.20;99.90;;;;;;4677980;26;20089;-81
2023/04/06 12:44:53;;;;;;;;;;;8.20;99.90;;;;;;4944528;29;38087;-82
2023/04/06 12:47:23;;;;;;;20.33;15.93;;;8.20;99.90;;;;;;4932724;28;39149;-82
2023/04/06 12:50:05;;;;;;;18.30;15.27;;;8.10;99.90;;;;;;4936149;29;39577;-81
2023/04/06 12:52:35;;;;;;;18.53;14.97;;;8.20;99.90;;;;;;4912797;29;39772;-83
2023/04/06 12:55:05;;;;;;;19.43;15.17;;;8.30;99.90;;;;;;4920974;29;36961;-82
2023/04/06 12:57:43;;;;;;;21.97;17.50;;;8.30;99.90;;;;;;4906795;28;40179;-82
2023/04/06 13:00:11;;;;;;;20.47;15.77;;;8.30;99.90;;;;;;4903527;29;40318;-82
2023/04/06 13:03:01;;;;;;;19.33;15.33;;;8.30;99.90;;;;;;4924265;28;39243;-81
2023/04/06 13:05:56;;;;;;;20.02;15.20;;;8.30;99.90;;;;;;4921040;28;50283;-82
2023/04/06 13:11:18;;;;;;;18.17;15.40;;;8.40;99.90;;;;;;5658151;23;20044;-84
2023/04/06 13:13:44;;;;;;;21.30;15.57;;;8.40;99.90;;;;;;5097589;23;38288;-81
2023/04/06 13:16:16;;;;;;;19.47;15.40;;;8.50;99.90;;;;;;4956072;23;37993;-82
2023/04/06 13:18:53;;;;;;;19.48;15.38;;;8.40;99.90;;;;;;4934864;29;38311;-81
2023/04/06 13:21:33;;;;;;;17.77;15.03;;;8.50;99.90;;;;;;4919528;28;37961;-82
2023/04/06 13:24:02;;;;;;;20.07;15.33;;;8.50;99.90;;;;;;4936967;28;39095;-82
2023/04/06 13:26:38;;;;;;;19.77;15.13;;;8.50;99.90;;;;;;4929789;28;47807;-82
2023/04/06 13:29:07;;;;;;;20.23;16.77;;;8.50;99.90;;;;;;4940392;28;36003;-81
2023/04/06 13:31:40;;;;;;;19.30;15.83;;;8.50;99.90;;;;;;4929155;29;48437;-82
2023/04/06 13:34:29;;;;;;;19.47;16.27;;;8.50;99.90;;;;;;4919029;28;39122;-81
2023/04/06 13:37:42;;;;;;;22.00;17.93;;;8.50;99.90;;;;;;4920275;28;38617;-81
2023/04/06 13:40:17;;;;;;;19.90;17.17;;;8.50;99.90;;;;;;4935695;28;39646;-82
2023/04/06 13:42:52;;;;;;;23.67;18.13;;;8.60;99.90;;;;;;4938309;28;49078;-82
2023/04/06 14:04:11;;;;;;;22.87;19.43;;;8.60;99.90;;;;;;5186378;23;20042;-84
2023/04/06 14:07:31;;;;;;;25.67;21.07;;;8.60;99.90;;;;;;4934740;28;38882;-83
2023/04/06 14:24:54;;;;;;;23.33;19.93;;;8.70;99.90;;;;;;5315968;23;20040;-84
2023/04/06 14:41:25;;;;;;;20.63;17.67;;;8.80;99.90;;;;;;5434778;23;20040;-82
2023/04/06 14:43:54;;;;;;;19.40;15.97;;;8.80;99.90;;;;;;4910127;29;35785;-83